Time;durP1;ratioP1;P1;durP2;ratioP2;P2;SDS_P1;SDS_P2;PMS_P1;PMS_P2;Temp;Humidity;BMP_temperature;BMP_pressure;BME280_temperature;BME280_humidity;BME280_pressure;Samples;Min_cycle;Max_cycle;Signal;HPM_P1;HPM_P2
2023/06/26 00:00:32;;;;;;;9.77;8.75;;;23.40;92.10;;;;;;5083225;28;20482;-61
2023/06/26 00:02:58;;;;;;;9.90;8.50;;;23.40;92.10;;;;;;5085031;28;20387;-61
2023/06/26 00:05:23;;;;;;;11.35;9.15;;;23.40;92.10;;;;;;5082254;28;20058;-61
2023/06/26 00:07:49;;;;;;;9.73;7.95;;;23.40;92.10;;;;;;5064960;28;20047;-61
2023/06/26 00:10:15;;;;;;;9.25;8.30;;;23.40;92.10;;;;;;5065150;28;20032;-61
2023/06/26 00:12:41;;;;;;;10.68;9.32;;;23.40;92.10;;;;;;5066931;28;20143;-61
2023/06/26 00:15:07;;;;;;;10.75;9.18;;;23.30;92.10;;;;;;5065892;28;20047;-61
2023/06/26 00:17:36;;;;;;;10.02;8.85;;;23.40;92.10;;;;;;5083902;28;20068;-61
2023/06/26 00:20:03;;;;;;;8.88;7.97;;;23.40;92.10;;;;;;5086368;28;20719;-61
2023/06/26 00:22:29;;;;;;;9.45;8.65;;;23.40;92.10;;;;;;5066223;28;20036;-61
2023/06/26 00:24:54;;;;;;;8.75;7.85;;;23.40;92.10;;;;;;5053301;28;20371;-61
2023/06/26 00:27:20;;;;;;;11.30;9.82;;;23.30;92.20;;;;;;5086357;28;20044;-61
2023/06/26 00:29:46;;;;;;;9.98;8.98;;;23.30;92.20;;;;;;5070688;28;20032;-61
2023/06/26 00:32:12;;;;;;;9.70;8.70;;;23.30;92.20;;;;;;5047635;28;20118;-61
2023/06/26 00:34:37;;;;;;;11.07;9.45;;;23.30;92.20;;;;;;5088020;28;20125;-61
2023/06/26 00:37:03;;;;;;;10.00;9.00;;;23.30;92.20;;;;;;5071324;28;20046;-61
2023/06/26 00:39:29;;;;;;;11.50;8.77;;;23.30;92.20;;;;;;5067899;28;20709;-61
2023/06/26 00:41:55;;;;;;;10.15;8.68;;;23.30;92.20;;;;;;5071086;28;20028;-61
2023/06/26 00:44:21;;;;;;;12.63;8.93;;;23.30;92.20;;;;;;5068403;28;20104;-61
2023/06/26 00:46:47;;;;;;;11.15;8.52;;;23.20;92.20;;;;;;5067913;28;20123;-61
2023/06/26 00:49:13;;;;;;;10.13;9.05;;;23.30;92.20;;;;;;5052059;28;20054;-61
2023/06/26 00:51:39;;;;;;;9.55;8.65;;;23.20;92.20;;;;;;5088825;28;20028;-61
2023/06/26 00:54:06;;;;;;;10.25;9.25;;;23.20;92.20;;;;;;5085810;28;20036;-61
2023/06/26 00:56:32;;;;;;;9.05;8.02;;;23.20;92.30;;;;;;5067000;28;20038;-61
2023/06/26 00:58:58;;;;;;;9.65;8.73;;;23.20;92.30;;;;;;5050167;28;20070;-61
2023/06/26 01:01:25;;;;;;;10.57;9.52;;;23.20;92.30;;;;;;5048583;28;20032;-61
2023/06/26 01:03:52;;;;;;;10.48;9.48;;;23.20;92.30;;;;;;5088381;28;20487;-61
2023/06/26 01:06:21;;;;;;;9.50;8.50;;;23.20;92.40;;;;;;5085971;28;20039;-61
2023/06/26 01:08:47;;;;;;;10.93;8.30;;;23.10;92.60;;;;;;5084280;28;20081;-61
2023/06/26 01:11:14;;;;;;;9.35;8.45;;;23.10;92.40;;;;;;5064144;28;20044;-61
2023/06/26 01:13:43;;;;;;;9.93;9.00;;;23.10;92.50;;;;;;5082971;28;20475;-61
2023/06/26 01:16:10;;;;;;;10.07;9.07;;;23.10;92.50;;;;;;5084001;28;20076;-61
2023/06/26 01:18:42;;;;;;;10.73;8.88;;;23.10;92.50;;;;;;5086936;28;20042;-61
2023/06/26 01:21:09;;;;;;;10.03;9.03;;;23.00;92.60;;;;;;5084322;28;20047;-61
2023/06/26 01:23:48;;;;;;;10.65;9.50;;;23.00;92.70;;;;;;5050674;28;20492;-61
2023/06/26 01:26:21;;;;;;;11.13;9.95;;;23.00;92.80;;;;;;5084523;28;20603;-61
2023/06/26 01:28:50;;;;;;;11.38;10.15;;;23.00;92.90;;;;;;5069573;28;20115;-61
2023/06/26 01:31:16;;;;;;;11.82;10.63;;;22.90;93.00;;;;;;5085819;28;20052;-61
2023/06/26 01:33:43;;;;;;;13.05;11.43;;;22.80;93.00;;;;;;5089215;28;20642;-61
2023/06/26 01:36:09;;;;;;;12.30;10.20;;;22.80;93.20;;;;;;5047605;28;20127;-61
2023/06/26 01:38:35;;;;;;;12.68;11.38;;;22.80;93.20;;;;;;5084073;28;20659;-61
2023/06/26 01:41:03;;;;;;;11.77;10.57;;;22.80;93.20;;;;;;5067017;28;20048;-61
2023/06/26 01:44:00;;;;;;;11.80;10.57;;;22.80;93.30;;;;;;5089159;28;20530;-61
2023/06/26 01:46:42;;;;;;;13.18;11.77;;;22.80;93.60;;;;;;5068440;28;20032;-61
2023/06/26 01:49:14;;;;;;;10.85;9.43;;;22.70;93.50;;;;;;5081839;28;20135;-61
2023/06/26 01:51:49;;;;;;;12.20;10.98;;;22.60;93.70;;;;;;5068444;28;20036;-61
2023/06/26 01:54:21;;;;;;;12.35;10.75;;;22.60;93.80;;;;;;5080944;28;20036;-61
2023/06/26 01:56:49;;;;;;;12.10;10.70;;;22.50;93.90;;;;;;5084341;28;20042;-61
2023/06/26 01:59:17;;;;;;;12.65;11.38;;;22.50;94.00;;;;;;5068399;28;20119;-61
2023/06/26 02:01:43;;;;;;;13.82;11.23;;;22.50;94.10;;;;;;5087051;28;20042;-61
2023/06/26 02:04:09;;;;;;;11.85;10.65;;;22.50;94.10;;;;;;5067496;28;20044;-61
2023/06/26 02:06:34;;;;;;;12.02;10.82;;;22.40;94.20;;;;;;5087991;28;20103;-61
2023/06/26 02:09:00;;;;;;;12.13;10.93;;;22.40;94.30;;;;;;5082806;28;20036;-61
2023/06/26 02:11:26;;;;;;;13.23;11.95;;;22.40;94.40;;;;;;5069004;28;20043;-61
2023/06/26 02:13:51;;;;;;;12.80;11.60;;;22.40;94.80;;;;;;5083671;28;20044;-61
2023/06/26 02:16:17;;;;;;;14.32;12.25;;;22.40;94.70;;;;;;5069510;28;20445;-61
2023/06/26 02:18:43;;;;;;;13.35;12.05;;;22.30;94.80;;;;;;5084223;28;20032;-61
2023/06/26 02:21:09;;;;;;;12.13;10.77;;;22.30;94.90;;;;;;5068526;28;20036;-61
2023/06/26 02:23:35;;;;;;;13.23;11.52;;;22.30;95.00;;;;;;5063052;28;20044;-61
2023/06/26 02:26:01;;;;;;;12.55;11.25;;;22.30;95.10;;;;;;5085743;28;20384;-61
2023/06/26 02:28:26;;;;;;;13.32;11.38;;;22.20;95.20;;;;;;5086155;28;20071;-61
2023/06/26 02:30:52;;;;;;;12.63;11.32;;;22.20;95.30;;;;;;5069421;28;20036;-61
2023/06/26 02:33:18;;;;;;;12.85;11.55;;;22.20;95.40;;;;;;5067556;28;20696;-61
2023/06/26 02:35:44;;;;;;;10.77;9.77;;;22.20;95.50;;;;;;5063686;28;20090;-61
2023/06/26 02:38:10;;;;;;;12.68;11.38;;;22.20;95.60;;;;;;5065106;28;20054;-61
2023/06/26 02:40:35;;;;;;;12.52;11.43;;;22.20;95.80;;;;;;5061600;28;20119;-61
2023/06/26 02:43:01;;;;;;;14.27;11.75;;;22.10;96.00;;;;;;5066933;28;20610;-61
2023/06/26 02:45:27;;;;;;;13.98;12.68;;;22.10;96.20;;;;;;5084468;28;20040;-61
2023/06/26 02:47:52;;;;;;;12.02;10.93;;;22.10;96.40;;;;;;5049077;28;20133;-61
2023/06/26 02:50:18;;;;;;;13.15;11.95;;;22.10;96.70;;;;;;5067691;28;20093;-61
2023/06/26 02:52:44;;;;;;;13.38;11.98;;;22.10;96.80;;;;;;5065304;28;20044;-61
2023/06/26 02:55:09;;;;;;;14.10;12.52;;;22.10;97.00;;;;;;5063041;28;20051;-61
2023/06/26 02:57:35;;;;;;;14.05;12.57;;;22.10;97.20;;;;;;5084965;28;20124;-61
2023/06/26 03:00:01;;;;;;;12.90;11.57;;;22.10;97.40;;;;;;5085599;28;20565;-61
2023/06/26 03:02:26;;;;;;;15.07;11.93;;;22.10;97.60;;;;;;5083220;28;20028;-61
2023/06/26 03:04:52;;;;;;;12.13;10.90;;;22.10;97.80;;;;;;5084428;28;20036;-61
2023/06/26 03:07:18;;;;;;;12.77;10.95;;;22.10;97.80;;;;;;5066456;28;20036;-61
2023/06/26 03:09:44;;;;;;;12.75;11.45;;;22.10;97.90;;;;;;5060822;28;20040;-61
2023/06/26 03:12:09;;;;;;;11.10;9.98;;;22.10;97.90;;;;;;5081976;28;20044;-61
2023/06/26 03:14:35;;;;;;;12.30;10.32;;;22.10;98.00;;;;;;5067249;28;20036;-61
2023/06/26 03:17:03;;;;;;;13.48;10.50;;;22.10;98.20;;;;;;5062204;28;20660;-61
2023/06/26 03:19:29;;;;;;;11.75;9.63;;;22.10;98.30;;;;;;5064371;28;20040;-61
2023/06/26 03:21:55;;;;;;;13.02;9.93;;;22.00;98.60;;;;;;5065183;28;20082;-61
2023/06/26 03:24:20;;;;;;;12.98;10.07;;;22.00;98.70;;;;;;5063828;28;20067;-62
2023/06/26 03:26:46;;;;;;;17.20;11.00;;;22.00;98.80;;;;;;5061938;28;21127;-62
2023/06/26 03:29:12;;;;;;;12.07;10.30;;;22.00;99.30;;;;;;5082419;28;20061;-61
2023/06/26 03:31:38;;;;;;;11.32;9.60;;;21.90;99.20;;;;;;5082055;28;20040;-62
2023/06/26 03:34:03;;;;;;;12.52;9.65;;;21.90;99.30;;;;;;5065256;28;20072;-62
2023/06/26 03:36:29;;;;;;;13.95;9.75;;;21.90;99.30;;;;;;5085400;28;20764;-62
2023/06/26 03:38:56;;;;;;;12.38;10.50;;;21.90;99.40;;;;;;5081632;28;20134;-62
2023/06/26 03:41:23;;;;;;;13.98;10.00;;;21.90;99.50;;;;;;5085647;28;20044;-62
2023/06/26 03:43:49;;;;;;;11.25;9.75;;;21.90;99.60;;;;;;5077051;28;20031;-62
2023/06/26 03:46:14;;;;;;;11.15;9.02;;;21.90;99.70;;;;;;5069259;28;20070;-62
2023/06/26 03:48:40;;;;;;;11.07;9.10;;;21.90;99.90;;;;;;5071485;28;20173;-62
2023/06/26 03:51:07;;;;;;;13.77;9.73;;;21.90;99.90;;;;;;5085342;28;20072;-62
2023/06/26 03:53:33;;;;;;;13.90;9.30;;;21.90;99.90;;;;;;5087084;28;20383;-62
2023/06/26 03:55:59;;;;;;;13.48;9.98;;;21.80;99.90;;;;;;5083308;28;20060;-62
2023/06/26 03:58:25;;;;;;;12.88;10.32;;;21.80;99.90;;;;;;5088876;28;20056;-62
2023/06/26 04:00:51;;;;;;;14.10;10.70;;;21.80;99.90;;;;;;5088948;28;20028;-62
2023/06/26 04:03:17;;;;;;;15.65;10.57;;;21.70;99.90;;;;;;5088704;28;20051;-62
2023/06/26 04:05:43;;;;;;;15.23;10.93;;;21.60;99.90;;;;;;5071336;28;20036;-62
2023/06/26 04:08:08;;;;;;;17.92;10.35;;;21.60;99.90;;;;;;5070019;28;20052;-62
2023/06/26 04:10:36;;;;;;;16.88;11.95;;;21.60;99.90;;;;;;5071738;28;20043;-62
2023/06/26 04:13:02;;;;;;;21.45;12.05;;;21.40;99.90;;;;;;5087985;28;20097;-62
2023/06/26 04:15:28;;;;;;;16.77;13.05;;;21.40;99.90;;;;;;5043703;28;20063;-62
2023/06/26 04:17:53;;;;;;;18.55;12.68;;;21.40;99.90;;;;;;5083656;28;20039;-61
2023/06/26 04:20:19;;;;;;;19.40;12.98;;;21.40;99.90;;;;;;5085302;28;20042;-61
2023/06/26 04:22:45;;;;;;;22.48;13.13;;;21.30;99.90;;;;;;5085812;28;20043;-62
2023/06/26 04:25:12;;;;;;;19.05;10.82;;;21.30;99.90;;;;;;5084733;28;20367;-62
2023/06/26 04:27:39;;;;;;;19.20;12.90;;;21.30;99.90;;;;;;5068072;28;20036;-62
2023/06/26 04:30:05;;;;;;;20.02;13.38;;;21.20;99.90;;;;;;5087052;28;20118;-62
2023/06/26 04:32:31;;;;;;;21.63;12.82;;;21.10;99.90;;;;;;5085931;28;20395;-62
2023/06/26 04:34:56;;;;;;;19.77;12.48;;;20.90;99.90;;;;;;5084415;28;20036;-62
2023/06/26 04:37:24;;;;;;;18.95;13.10;;;20.90;99.90;;;;;;5069188;28;20040;-62
2023/06/26 04:39:50;;;;;;;19.08;12.02;;;20.60;99.90;;;;;;5052083;28;20094;-61
2023/06/26 04:42:16;;;;;;;19.70;11.15;;;20.60;99.90;;;;;;5067393;28;20044;-61
2023/06/26 04:44:42;;;;;;;14.43;10.10;;;20.60;99.90;;;;;;5070218;28;20489;-62
2023/06/26 04:47:08;;;;;;;18.13;10.18;;;20.60;99.90;;;;;;5069800;28;20083;-61
2023/06/26 04:49:34;;;;;;;15.55;9.52;;;20.50;99.90;;;;;;5053039;28;20419;-62
2023/06/26 04:52:00;;;;;;;15.30;9.13;;;20.40;99.90;;;;;;5068533;28;20114;-62
2023/06/26 04:54:26;;;;;;;15.52;8.60;;;20.30;99.90;;;;;;5067325;28;20064;-62
2023/06/26 04:56:52;;;;;;;14.50;7.43;;;20.10;99.90;;;;;;5061308;28;20182;-62
2023/06/26 04:59:18;;;;;;;17.67;7.38;;;20.00;99.90;;;;;;5067863;28;20095;-62
2023/06/26 05:01:47;;;;;;;12.38;5.50;;;20.00;99.90;;;;;;5077062;28;20147;-61
2023/06/26 05:04:14;;;;;;;15.25;6.18;;;20.00;99.90;;;;;;5065409;28;20048;-62
2023/06/26 05:06:40;;;;;;;14.65;5.90;;;19.90;99.90;;;;;;5065730;28;20032;-61
2023/06/26 05:09:06;;;;;;;20.05;6.03;;;19.60;99.90;;;;;;5066861;28;20610;-61
2023/06/26 05:11:32;;;;;;;18.73;5.88;;;19.50;99.90;;;;;;5068108;28;20168;-62
2023/06/26 05:13:58;;;;;;;15.27;6.18;;;19.30;99.90;;;;;;5051061;28;20059;-62
2023/06/26 05:16:24;;;;;;;18.85;6.25;;;19.30;99.90;;;;;;5083653;28;20036;-61
2023/06/26 05:18:49;;;;;;;15.05;5.53;;;19.30;99.90;;;;;;5064579;28;20040;-62
2023/06/26 05:21:16;;;;;;;16.13;5.40;;;19.20;99.90;;;;;;5085651;28;20036;-61
2023/06/26 05:23:44;;;;;;;18.95;5.93;;;19.20;99.90;;;;;;5068259;28;20493;-61
2023/06/26 05:26:10;;;;;;;15.20;5.88;;;19.20;99.90;;;;;;5066875;28;20051;-62
2023/06/26 05:28:37;;;;;;;16.80;5.57;;;19.30;99.90;;;;;;5086494;28;20115;-62
2023/06/26 05:31:04;;;;;;;18.27;5.47;;;19.30;99.90;;;;;;5060506;28;20077;-62
2023/06/26 05:33:34;;;;;;;18.35;5.07;;;19.30;99.90;;;;;;5062723;28;20052;-62
2023/06/26 05:36:02;;;;;;;16.20;5.32;;;19.30;99.90;;;;;;5087276;28;20059;-61
2023/06/26 05:38:28;;;;;;;15.10;4.88;;;19.30;99.90;;;;;;5063974;28;20529;-61
2023/06/26 05:40:54;;;;;;;15.77;5.80;;;19.40;99.90;;;;;;5065253;28;20040;-62
2023/06/26 05:43:21;;;;;;;14.95;4.93;;;19.30;99.90;;;;;;5082397;28;20538;-61
2023/06/26 05:45:48;;;;;;;13.32;5.03;;;19.30;99.90;;;;;;5086489;28;20044;-62
2023/06/26 05:48:14;;;;;;;12.77;4.53;;;19.40;99.90;;;;;;5063259;28;20056;-62
2023/06/26 05:50:41;;;;;;;12.32;4.32;;;19.40;99.90;;;;;;5063384;28;20127;-61
2023/06/26 05:53:08;;;;;;;12.32;4.20;;;19.50;99.90;;;;;;5068029;28;20425;-63
2023/06/26 05:55:34;;;;;;;13.35;4.78;;;19.50;99.90;;;;;;5086632;28;20687;-63
2023/06/26 05:58:02;;;;;;;10.27;4.15;;;19.50;99.90;;;;;;5081119;28;20040;-62
2023/06/26 06:00:29;;;;;;;12.20;4.20;;;19.50;99.90;;;;;;5081400;28;20403;-62
2023/06/26 06:02:55;;;;;;;12.77;4.10;;;19.70;99.90;;;;;;5085847;28;20047;-62
2023/06/26 06:05:21;;;;;;;13.98;4.45;;;19.60;99.90;;;;;;5063404;28;20032;-63
2023/06/26 06:07:48;;;;;;;14.90;3.70;;;19.70;99.90;;;;;;5063449;28;20048;-64
2023/06/26 06:10:14;;;;;;;12.32;3.58;;;19.80;99.90;;;;;;5080415;28;20043;-61
2023/06/26 06:12:39;;;;;;;11.05;3.65;;;19.90;99.90;;;;;;5086904;28;20471;-61
2023/06/26 06:15:06;;;;;;;10.32;3.20;;;20.00;99.90;;;;;;5066954;28;20498;-60
2023/06/26 06:17:31;;;;;;;9.80;3.17;;;19.90;99.90;;;;;;5084940;28;20062;-62
2023/06/26 06:19:57;;;;;;;6.80;2.67;;;20.00;99.90;;;;;;5084506;28;20040;-61
2023/06/26 06:22:23;;;;;;;9.63;2.95;;;20.10;99.90;;;;;;5083116;28;20068;-62
2023/06/26 06:24:50;;;;;;;10.90;3.08;;;20.20;99.90;;;;;;5068499;28;20044;-62
2023/06/26 06:27:16;;;;;;;9.80;3.25;;;20.20;99.90;;;;;;5067267;28;20044;-61
2023/06/26 06:29:42;;;;;;;11.15;3.55;;;20.20;99.90;;;;;;5068636;28;20494;-62
2023/06/26 06:32:08;;;;;;;10.18;3.08;;;20.20;99.90;;;;;;5053685;28;20044;-62
2023/06/26 06:34:33;;;;;;;8.80;3.40;;;20.20;99.90;;;;;;5083676;28;20080;-62
2023/06/26 06:36:59;;;;;;;9.02;2.70;;;20.30;99.90;;;;;;5084006;28;20036;-62
2023/06/26 06:39:25;;;;;;;9.30;3.00;;;20.40;99.90;;;;;;5067217;28;20421;-62
2023/06/26 06:41:51;;;;;;;11.95;3.10;;;20.40;99.90;;;;;;5085092;28;20109;-62
2023/06/26 06:44:16;;;;;;;15.13;3.63;;;20.50;99.90;;;;;;5050446;28;20058;-61
2023/06/26 06:46:42;;;;;;;9.82;4.03;;;20.50;99.90;;;;;;5085511;28;20036;-62
2023/06/26 06:49:09;;;;;;;9.10;2.95;;;20.50;99.90;;;;;;5052353;28;20072;-62
2023/06/26 06:51:34;;;;;;;13.55;2.90;;;20.40;99.90;;;;;;5051389;28;21722;-62
2023/06/26 06:54:02;;;;;;;12.27;3.05;;;20.60;99.90;;;;;;5083738;28;20039;-63
2023/06/26 06:56:28;;;;;;;7.85;2.80;;;20.50;99.90;;;;;;5070802;28;20391;-62
2023/06/26 06:58:53;;;;;;;7.18;2.53;;;20.60;99.90;;;;;;5082559;28;20036;-61
2023/06/26 07:01:19;;;;;;;7.82;2.70;;;20.50;99.90;;;;;;5064114;28;20083;-62
2023/06/26 07:03:45;;;;;;;9.93;3.00;;;20.20;99.90;;;;;;5079194;28;20044;-60
2023/06/26 07:06:10;;;;;;;8.25;2.67;;;20.30;99.90;;;;;;5063846;28;20526;-61
2023/06/26 07:08:36;;;;;;;9.32;2.42;;;20.10;99.90;;;;;;5082925;28;20040;-62
2023/06/26 07:11:02;;;;;;;10.32;2.90;;;20.20;99.90;;;;;;5066635;28;20511;-63
2023/06/26 07:13:28;;;;;;;8.18;2.85;;;20.20;99.90;;;;;;5060012;28;20608;-62
2023/06/26 07:15:54;;;;;;;4.20;2.10;;;20.40;99.90;;;;;;5063134;28;20111;-62
2023/06/26 07:18:20;;;;;;;10.55;2.58;;;20.50;99.90;;;;;;5058908;28;20093;-62
2023/06/26 07:20:45;;;;;;;7.18;2.60;;;20.50;99.90;;;;;;5066032;28;20062;-61
2023/06/26 07:23:11;;;;;;;5.75;1.90;;;20.60;99.90;;;;;;5067848;28;20065;-60
2023/06/26 07:25:37;;;;;;;5.55;2.08;;;20.60;99.90;;;;;;5078591;28;20048;-61
2023/06/26 07:28:03;;;;;;;8.93;2.42;;;20.40;99.90;;;;;;5062125;28;20434;-64
2023/06/26 07:30:28;;;;;;;5.82;2.50;;;20.40;99.90;;;;;;5083068;28;20044;-62
2023/06/26 07:32:54;;;;;;;5.63;2.60;;;20.50;99.90;;;;;;5062445;28;20047;-62
2023/06/26 07:35:20;;;;;;;9.30;2.28;;;20.50;99.90;;;;;;5063672;28;20076;-62
2023/06/26 07:37:46;;;;;;;7.78;1.88;;;20.50;99.90;;;;;;5060898;28;20357;-62
2023/06/26 07:40:11;;;;;;;4.97;2.00;;;20.60;99.90;;;;;;5064060;28;20144;-61
2023/06/26 07:42:37;;;;;;;8.70;2.88;;;20.80;99.90;;;;;;5063570;28;20040;-60
2023/06/26 07:45:10;;;;;;;8.38;2.58;;;21.00;99.90;;;;;;5050491;28;20622;-62
2023/06/26 07:47:37;;;;;;;6.10;2.60;;;20.70;99.90;;;;;;5063903;28;20576;-62
2023/06/26 07:50:03;;;;;;;8.05;2.70;;;20.70;99.90;;;;;;5084234;28;20747;-62
2023/06/26 07:52:30;;;;;;;5.63;2.13;;;20.70;99.90;;;;;;5038092;28;20453;-62
2023/06/26 07:54:56;;;;;;;6.03;2.30;;;20.70;99.90;;;;;;5062320;28;20497;-62
2023/06/26 07:57:22;;;;;;;7.15;2.42;;;20.90;99.90;;;;;;5065783;28;20502;-61
2023/06/26 07:59:47;;;;;;;7.47;2.55;;;20.90;99.90;;;;;;5061832;28;20071;-62
2023/06/26 08:02:13;;;;;;;6.70;2.50;;;20.90;99.90;;;;;;5062043;28;20390;-62
2023/06/26 08:04:39;;;;;;;5.50;2.20;;;20.90;99.90;;;;;;5065525;28;20081;-61
2023/06/26 08:07:05;;;;;;;7.05;2.72;;;20.80;99.90;;;;;;5061297;28;20127;-62
2023/06/26 08:09:31;;;;;;;4.43;2.60;;;20.90;99.90;;;;;;5082562;28;20101;-62
2023/06/26 08:11:57;;;;;;;3.95;2.40;;;21.00;99.90;;;;;;5065663;28;20487;-62
2023/06/26 08:14:23;;;;;;;7.22;2.45;;;20.80;99.90;;;;;;5043088;28;20040;-62
2023/06/26 08:16:49;;;;;;;6.68;2.13;;;20.60;99.90;;;;;;5081243;28;20044;-62
2023/06/26 08:19:16;;;;;;;6.85;3.05;;;20.70;99.90;;;;;;5081039;28;20035;-61
2023/06/26 08:21:45;;;;;;;6.78;2.78;;;20.90;99.90;;;;;;5080977;28;20039;-61
2023/06/26 08:24:13;;;;;;;5.35;2.53;;;21.00;99.90;;;;;;5062452;28;20079;-61
2023/06/26 08:26:39;;;;;;;6.50;3.10;;;21.00;99.90;;;;;;5064589;28;20051;-63
2023/06/26 08:29:07;;;;;;;6.53;2.20;;;20.90;99.90;;;;;;5048210;28;20067;-62
2023/06/26 08:31:37;;;;;;;6.60;2.15;;;21.00;99.90;;;;;;5062611;28;20637;-63
2023/06/26 08:34:04;;;;;;;8.13;2.70;;;21.00;99.90;;;;;;5082016;28;20032;-62
2023/06/26 08:36:30;;;;;;;4.82;2.50;;;21.10;99.90;;;;;;5072186;28;20047;-63
2023/06/26 08:38:56;;;;;;;8.48;2.63;;;21.20;99.90;;;;;;5064598;28;20139;-61
2023/06/26 08:41:21;;;;;;;5.45;2.17;;;21.20;99.90;;;;;;5067605;28;20891;-60
2023/06/26 08:43:48;;;;;;;5.70;2.20;;;21.30;99.90;;;;;;5068236;28;20126;-61
2023/06/26 08:46:14;;;;;;;5.15;2.40;;;21.20;99.60;;;;;;5086780;28;20044;-63
2023/06/26 08:48:47;;;;;;;7.78;3.20;;;21.30;99.70;;;;;;5071840;28;20111;-62
2023/06/26 08:51:17;;;;;;;6.45;2.78;;;21.40;99.90;;;;;;5083915;28;20040;-61
2023/06/26 08:53:59;;;;;;;5.70;2.38;;;21.50;99.60;;;;;;5046973;28;20046;-62
2023/06/26 08:56:35;;;;;;;7.13;3.22;;;21.50;98.80;;;;;;5085521;28;20035;-62
2023/06/26 08:59:01;;;;;;;6.47;2.90;;;21.30;99.10;;;;;;5083216;28;20032;-62
2023/06/26 09:01:27;;;;;;;8.93;3.28;;;21.10;99.10;;;;;;5083072;28;20046;-61
2023/06/26 09:03:53;;;;;;;5.97;3.08;;;21.30;99.70;;;;;;5084091;28;20028;-61
2023/06/26 09:06:19;;;;;;;11.65;3.05;;;21.60;99.90;;;;;;5078958;28;20047;-62
2023/06/26 09:08:45;;;;;;;6.60;2.90;;;21.50;99.70;;;;;;5060504;28;20135;-61
2023/06/26 09:11:11;;;;;;;8.38;3.10;;;21.40;99.20;;;;;;5063746;28;20039;-62
2023/06/26 09:13:37;;;;;;;7.43;3.20;;;21.40;98.70;;;;;;5064924;28;20032;-63
2023/06/26 09:16:07;;;;;;;6.70;3.50;;;21.30;99.10;;;;;;5068061;28;20066;-62
2023/06/26 09:18:33;;;;;;;7.93;3.17;;;21.30;98.90;;;;;;5064623;28;20058;-62
2023/06/26 09:20:59;;;;;;;8.25;3.15;;;21.50;98.60;;;;;;5062834;28;20398;-61
2023/06/26 09:23:25;;;;;;;7.20;3.25;;;21.60;98.20;;;;;;5079385;28;20036;-63
2023/06/26 09:25:52;;;;;;;7.45;2.95;;;21.90;98.10;;;;;;5062831;28;20487;-61
2023/06/26 09:28:18;;;;;;;5.60;3.03;;;21.90;97.60;;;;;;5061250;28;20055;-62
2023/06/26 09:30:48;;;;;;;8.70;3.35;;;21.80;98.00;;;;;;5050150;28;20133;-61
2023/06/26 09:33:20;;;;;;;10.00;3.50;;;21.90;98.20;;;;;;5084380;28;20048;-61
2023/06/26 09:35:47;;;;;;;9.80;4.13;;;21.70;97.70;;;;;;5085763;28;20028;-61
2023/06/26 09:38:13;;;;;;;8.88;3.72;;;21.50;98.00;;;;;;5050086;28;20087;-62
2023/06/26 09:40:40;;;;;;;8.13;3.60;;;21.20;98.60;;;;;;5066157;28;20085;-59
2023/06/26 09:43:06;;;;;;;6.50;3.95;;;21.50;98.90;;;;;;5076870;28;20062;-60
2023/06/26 09:45:38;;;;;;;9.45;3.83;;;21.60;98.50;;;;;;5084438;28;20051;-61
2023/06/26 09:48:05;;;;;;;10.63;4.07;;;21.70;98.10;;;;;;5067022;28;20403;-60
2023/06/26 09:50:33;;;;;;;7.13;4.07;;;21.80;98.50;;;;;;5066163;28;20067;-61
2023/06/26 09:53:11;;;;;;;8.05;4.32;;;22.10;98.60;;;;;;5062963;28;20075;-61
2023/06/26 09:55:37;;;;;;;7.65;3.92;;;21.70;98.20;;;;;;5067014;28;20039;-60
2023/06/26 09:58:04;;;;;;;8.20;3.97;;;22.00;98.30;;;;;;5087531;28;20679;-61
2023/06/26 10:00:31;;;;;;;7.90;4.05;;;22.40;98.00;;;;;;5063492;28;20036;-61
2023/06/26 10:03:01;;;;;;;6.18;3.67;;;22.40;97.40;;;;;;5087595;28;20072;-66
2023/06/26 10:05:27;;;;;;;7.88;3.60;;;21.90;97.60;;;;;;5067566;28;20043;-61
2023/06/26 10:07:54;;;;;;;7.65;3.45;;;21.90;98.10;;;;;;5064802;28;20051;-60
2023/06/26 10:10:22;;;;;;;7.97;3.00;;;21.90;98.30;;;;;;5081831;28;20074;-60
2023/06/26 10:12:51;;;;;;;7.88;3.08;;;22.10;98.00;;;;;;5061354;28;21011;-61
2023/06/26 10:15:20;;;;;;;7.07;3.22;;;22.20;97.10;;;;;;5078449;28;20542;-63
2023/06/26 10:17:46;;;;;;;6.93;3.40;;;21.90;96.80;;;;;;5065865;28;20046;-61
2023/06/26 10:20:14;;;;;;;5.32;2.83;;;22.00;96.70;;;;;;5061287;28;20047;-61
2023/06/26 10:22:47;;;;;;;9.80;3.33;;;21.70;96.80;;;;;;5063652;28;20036;-61
2023/06/26 10:25:18;;;;;;;7.70;3.17;;;21.70;97.10;;;;;;5064027;28;20051;-61
2023/06/26 10:27:48;;;;;;;6.00;2.60;;;21.60;96.80;;;;;;5062395;28;20037;-62
2023/06/26 10:30:19;;;;;;;10.38;3.47;;;21.40;96.80;;;;;;5062748;28;20071;-62
2023/06/26 10:32:46;;;;;;;7.90;2.60;;;21.60;96.70;;;;;;5058474;28;20043;-60
2023/06/26 10:35:12;;;;;;;10.35;2.70;;;21.70;96.60;;;;;;5083475;28;20040;-61
2023/06/26 10:37:49;;;;;;;9.05;2.22;;;21.80;95.90;;;;;;5064604;28;20479;-60
2023/06/26 10:40:25;;;;;;;5.93;2.50;;;22.00;95.80;;;;;;5082202;28;20108;-60
2023/06/26 10:42:51;;;;;;;6.20;2.08;;;22.00;96.20;;;;;;5077268;28;20028;-61
2023/06/26 10:45:19;;;;;;;9.98;1.92;;;22.40;96.10;;;;;;5078553;28;20043;-61
2023/06/26 10:47:52;;;;;;;6.55;2.50;;;22.50;95.40;;;;;;5058226;28;20094;-59
2023/06/26 10:50:28;;;;;;;4.03;1.52;;;22.70;95.10;;;;;;5077957;28;20032;-59
2023/06/26 10:53:13;;;;;;;10.18;2.42;;;23.20;95.40;;;;;;5079062;28;20040;-60
2023/06/26 10:55:49;;;;;;;7.65;2.30;;;23.00;94.60;;;;;;5064068;28;20051;-59
2023/06/26 10:58:40;;;;;;;6.57;2.05;;;22.70;94.70;;;;;;5062946;28;20043;-59
2023/06/26 11:01:14;;;;;;;3.95;1.85;;;22.40;93.30;;;;;;5079389;28;20036;-59
2023/06/26 11:03:42;;;;;;;6.80;1.80;;;22.60;93.90;;;;;;5077783;28;20060;-59
2023/06/26 11:06:13;;;;;;;6.78;1.65;;;22.60;92.90;;;;;;5068481;28;20207;-60
2023/06/26 11:08:49;;;;;;;6.93;2.33;;;22.70;92.90;;;;;;5045441;28;20044;-59
2023/06/26 11:11:16;;;;;;;8.73;2.35;;;22.70;93.00;;;;;;5049868;28;20123;-59
2023/06/26 11:13:42;;;;;;;5.28;2.08;;;22.60;93.00;;;;;;5084422;28;20036;-59
2023/06/26 11:16:08;;;;;;;9.27;2.58;;;22.80;93.10;;;;;;5083112;28;20048;-59
2023/06/26 11:18:34;;;;;;;7.82;2.05;;;22.80;93.20;;;;;;5066339;28;20032;-59
2023/06/26 11:21:07;;;;;;;7.70;2.08;;;21.90;93.00;;;;;;5081295;28;20039;-59
2023/06/26 11:23:35;;;;;;;5.57;1.90;;;21.60;93.20;;;;;;5087246;28;20042;-59
2023/06/26 11:26:18;;;;;;;12.32;2.25;;;21.80;93.40;;;;;;5061755;28;20458;-59
2023/06/26 11:28:52;;;;;;;10.60;2.30;;;21.70;93.20;;;;;;5065940;28;20068;-61
2023/06/26 11:31:25;;;;;;;7.60;2.08;;;22.10;93.30;;;;;;5085896;28;20052;-60
2023/06/26 11:33:51;;;;;;;7.82;2.45;;;22.30;93.40;;;;;;5085792;28;21107;-60
2023/06/26 11:36:17;;;;;;;8.07;2.20;;;22.60;93.70;;;;;;5046697;28;20044;-60
2023/06/26 11:38:42;;;;;;;9.25;2.65;;;22.90;93.80;;;;;;5080405;28;20039;-59
2023/06/26 11:41:08;;;;;;;9.13;2.67;;;22.90;93.60;;;;;;5067765;28;20079;-59
2023/06/26 11:43:35;;;;;;;8.48;2.00;;;23.00;93.60;;;;;;5063100;28;20044;-59
2023/06/26 11:46:00;;;;;;;8.63;2.55;;;22.70;93.40;;;;;;5065751;28;20142;-59
2023/06/26 11:48:26;;;;;;;7.32;2.28;;;22.80;92.70;;;;;;5063747;28;20143;-60
2023/06/26 11:50:52;;;;;;;9.32;2.42;;;22.90;92.20;;;;;;5043907;28;20048;-59
2023/06/26 11:53:18;;;;;;;8.95;2.20;;;23.00;93.00;;;;;;5044256;28;20075;-59
2023/06/26 11:55:43;;;;;;;7.30;2.72;;;22.90;93.40;;;;;;5062925;28;20047;-59
2023/06/26 11:58:09;;;;;;;9.40;2.05;;;22.50;93.00;;;;;;5083766;28;20072;-58
2023/06/26 12:00:35;;;;;;;8.10;2.13;;;22.10;93.80;;;;;;5060264;28;20046;-58
2023/06/26 12:03:03;;;;;;;11.48;3.35;;;22.30;94.00;;;;;;5080432;28;20501;-59
2023/06/26 12:05:29;;;;;;;6.65;2.38;;;22.50;93.40;;;;;;5049564;28;20046;-59
2023/06/26 12:07:57;;;;;;;7.00;2.35;;;22.30;93.40;;;;;;5067154;28;20040;-59
2023/06/26 12:10:23;;;;;;;7.50;2.60;;;22.60;93.40;;;;;;5071219;28;20070;-59
2023/06/26 12:12:49;;;;;;;6.03;2.00;;;22.60;92.80;;;;;;5056014;28;20071;-59
2023/06/26 12:15:16;;;;;;;6.20;2.05;;;22.30;92.50;;;;;;5051695;28;20108;-59
2023/06/26 12:17:42;;;;;;;7.25;2.28;;;22.50;93.10;;;;;;5066975;28;20495;-58
2023/06/26 12:20:22;;;;;;;8.18;2.10;;;22.80;92.70;;;;;;5066413;28;20051;-58
2023/06/26 12:22:48;;;;;;;7.90;1.90;;;22.80;92.90;;;;;;5087962;28;20040;-58
2023/06/26 12:25:15;;;;;;;6.07;1.90;;;22.30;93.00;;;;;;5086748;28;20126;-59
2023/06/26 12:27:40;;;;;;;11.95;2.50;;;22.10;93.70;;;;;;5081820;28;20061;-59
2023/06/26 12:30:07;;;;;;;6.03;2.13;;;22.00;94.10;;;;;;5088338;28;20131;-59
2023/06/26 12:32:34;;;;;;;7.70;2.80;;;21.70;93.80;;;;;;5088294;28;20770;-58
2023/06/26 12:35:01;;;;;;;10.70;3.10;;;21.90;94.30;;;;;;5068134;28;20695;-59
2023/06/26 12:37:27;;;;;;;7.78;2.13;;;22.10;93.90;;;;;;5051909;28;20066;-59
2023/06/26 12:39:57;;;;;;;9.85;2.70;;;21.90;93.90;;;;;;5087017;28;20044;-58